• Join FlightAware (Why Join?)
  • Login
  • US Flag 
11:44PM EST


 

Airport Tracker/Info


-or-


 

Live Flight TrackerFlight Track Log ✈ ASQ5129 ✈ 21-Jun-2013 ✈ KATL - KGSO

Flight Track Log - Related Links

Times and Time Zones

All times are in EDT time to prevent confusion due to time zone crossing. See the ASQ5129 flight status page for this flight to view local times or setup timezone preferences in your user account.

Time Position Orientation Groundspeed Altitude Reporting Facility
EDT Latitude Longitude Course Direction KTS MPH feet Rate Location/Type
08:28AM 33.6333 -84.4000 90° East 166 191 2,300  Level Atlanta TRACON
08:29AM 33.6333 -84.3333 90° East 229 264 4,100 2,280 Climbing Atlanta TRACON
08:30AM 33.6333 -84.2667 90° East 263 303 6,700 2,340 Climbing Atlanta TRACON
08:32AM 33.6772 -84.0464 76° East 309 356 11,900 2,220 Climbing Atlanta Center
08:33AM 33.7400 -83.9614 48° Northeast 321 369 14,400 2,160 Climbing Atlanta Center
08:34AM 33.8108 -83.8714 47° Northeast 347 399 16,300 1,920 Climbing Atlanta Center
08:35AM 33.8817 -83.7761 48° Northeast 371 427 18,300 1,980 Climbing Atlanta Center
08:36AM 33.9522 -83.6756 50° Northeast 387 445 20,300 1,800 Climbing Atlanta Center
08:37AM 34.0189 -83.5700 53° Northeast 392 451 21,900 1,620 Climbing Atlanta Center
08:38AM 34.0914 -83.4569 52° Northeast 410 472 23,600 1,560 Climbing Atlanta Center
08:39AM 34.1678 -83.3333 53° Northeast 420 483 25,100 1,440 Climbing Atlanta Center
08:40AM 34.2444 -83.2144 52° Northeast 425 489 26,500 1,320 Climbing Atlanta Center
08:41AM 34.3186 -83.0931 53° Northeast 441 507 27,800 1,320 Climbing Atlanta Center
08:42AM 34.3969 -82.9664 53° Northeast 458 527 29,200 1,440 Climbing Atlanta Center
08:43AM 34.4731 -82.8444 53° Northeast 458 527 30,700 900 Climbing Atlanta Center
08:44AM 34.5469 -82.7197 54° Northeast 452 520 31,000 120 Climbing Atlanta Center
08:45AM 34.6225 -82.5925 54° Northeast 459 528 31,000  Level Atlanta Center
08:46AM 34.6964 -82.4875 49° Northeast 459 528 31,000  Level Atlanta Center
08:47AM 34.7719 -82.3622 54° Northeast 459 528 31,000  Level Atlanta Center
08:48AM 34.8475 -82.2342 54° Northeast 459 528 31,000 -240 Level Atlanta Center
08:49AM 34.9269 -82.1108 52° Northeast 459 528 30,600 -900 Descending Atlanta Center
08:50AM 35.0000 -81.9850 55° Northeast 459 528 29,300 -1,500 Descending Atlanta Center
08:51AM 35.0942 -81.8836 41° Northeast 449 517 27,700 -1,740 Descending Atlanta Center
08:52AM 35.2114 -81.7889 33° Northeast 458 527 25,900 -1,980 Descending Atlanta Center
08:53AM 35.3164 -81.7072 32° Northeast 447 514 23,800 -1,800 Descending Atlanta Center
08:54AM 35.4128 -81.6206 36° Northeast 441 507 22,400 -1,500 Descending Atlanta Center
08:55AM 35.4942 -81.5186 46° Northeast 420 483 20,800 -1,380 Descending Atlanta Center
08:56AM 35.5714 -81.4192 46° Northeast 405 466 19,700 -1,140 Descending Atlanta Center
08:57AM 35.6486 -81.3247 45° Northeast 394 453 18,600 -900 Descending Atlanta Center
08:58AM 35.7175 -81.2356 46° Northeast 394 453 18,000 -300 Descending Atlanta Center
08:59AM 35.7903 -81.1383 47° Northeast 383 441 18,000 -120 Level Atlanta Center
09:00AM 35.8631 -81.0433 47° Northeast 378 435 17,800 -900 Descending Atlanta Center
09:01AM 35.9419 -80.9378 47° Northeast 378 435 16,300 -1,800 Descending Atlanta Center
09:02AM 36.0125 -80.8453 47° Northeast 378 435 14,300 -2,100 Descending Atlanta Center
09:03AM 36.0472 -80.7336 69° East 359 413 12,200 -1,680 Descending Atlanta Center
09:04AM 36.0733 -80.6219 74° East 341 392 11,000 -780 Descending Atlanta Center
09:05AM 36.0850 -80.5239 82° East 326 375 10,700 -840 Descending Atlanta Center
09:06AM 36.0533 -80.4303 113° Southeast 303 349 9,400 -1,560 Descending Atlanta Center
09:07AM 36.0236 -80.3442 113° Southeast 282 325 7,600 -1,740 Descending Atlanta Center
09:08AM 35.9917 -80.2611 115° Southeast 276 318 6,000 -1,440 Descending Atlanta Center
09:09AM 35.9786 -80.1769 101° East 244 281 4,800 -1,320 Descending Atlanta Center
09:10AM 35.9886 -80.0969 81° East 225 259 3,400 -1,020 Descending Atlanta Center
09:11AM 36.0142 -80.0417 60° Northeast 209 241 2,800 -600 Descending Atlanta Center
09:13AM 36.0790 -79.9403 15° North  Level FlightAware Approximate
09:20AM 36.1000 -79.9333 15° North  Level FlightAware Approximate
09:21AM 36.1013 -79.9411 15° North  Level Estimated
09:22AM 36.1000 -79.9333 15° North  Level FlightAware Approximate
09:23AM 36.1013 -79.9411 15° North  Level Estimated